createdAt,value
2022-11-09T00:01:03.637Z,24.63
2022-11-09T00:03:30.590Z,28.77
2022-11-09T00:05:59.339Z,30.30
2022-11-09T00:08:27.052Z,27.50
2022-11-09T00:10:54.185Z,28.20
2022-11-09T00:13:22.138Z,28.33
2022-11-09T00:15:49.574Z,25.47
2022-11-09T00:18:16.488Z,27.30
2022-11-09T00:20:47.726Z,28.90
2022-11-09T00:23:16.353Z,27.10
2022-11-09T00:25:43.640Z,29.90
2022-11-09T00:28:10.660Z,26.63
2022-11-09T00:30:37.674Z,26.10
2022-11-09T00:33:04.641Z,28.90
2022-11-09T00:35:31.763Z,29.40
2022-11-09T00:37:58.864Z,28.57
2022-11-09T00:40:25.850Z,28.53
2022-11-09T00:42:52.855Z,27.83
2022-11-09T00:45:20.375Z,31.43
2022-11-09T00:47:47.311Z,30.27
2022-11-09T00:50:14.258Z,29.77
2022-11-09T00:52:41.265Z,27.60
2022-11-09T00:55:08.733Z,29.13
2022-11-09T00:57:35.667Z,32.57
2022-11-09T01:00:02.842Z,29.23
2022-11-09T01:02:29.734Z,30.67
2022-11-09T01:04:57.103Z,32.90
2022-11-09T01:07:24.011Z,30.60
2022-11-09T01:09:50.945Z,32.57
2022-11-09T01:12:17.853Z,31.37
2022-11-09T01:14:44.919Z,32.07
2022-11-09T01:17:11.835Z,25.67
2022-11-09T01:19:38.752Z,26.40
2022-11-09T01:22:05.655Z,32.30
2022-11-09T01:24:32.590Z,31.37
2022-11-09T01:26:59.494Z,30.20
2022-11-09T01:29:26.417Z,28.00
2022-11-09T01:31:55.988Z,29.63
2022-11-09T01:34:23.000Z,29.13
2022-11-09T01:36:52.670Z,29.90
2022-11-09T01:39:20.030Z,35.23
2022-11-09T01:41:47.608Z,30.20
2022-11-09T01:44:20.115Z,33.40
2022-11-09T01:47:21.901Z,32.40
2022-11-09T01:50:00.144Z,33.37
2022-11-09T01:52:36.898Z,33.00
2022-11-09T01:55:12.651Z,36.57
2022-11-09T01:57:50.082Z,31.87
2022-11-09T02:00:18.252Z,31.27
2022-11-09T02:02:57.258Z,32.60
2022-11-09T02:05:29.726Z,36.67
2022-11-09T02:07:58.389Z,27.90
2022-11-09T02:10:55.081Z,31.00
2022-11-09T02:13:24.811Z,35.63
2022-11-09T02:15:52.828Z,32.40
2022-11-09T02:18:20.413Z,34.53
2022-11-09T02:20:57.833Z,33.67
2022-11-09T02:23:26.876Z,29.53
2022-11-09T02:26:00.311Z,34.27
2022-11-09T02:28:27.934Z,30.77
2022-11-09T02:30:57.096Z,32.77
2022-11-09T02:33:24.562Z,34.57
2022-11-09T02:35:52.002Z,30.73
2022-11-09T02:38:18.950Z,33.30
2022-11-09T02:40:50.172Z,37.17
2022-11-09T02:43:18.413Z,34.00
2022-11-09T02:45:45.682Z,34.77
2022-11-09T02:48:12.656Z,38.13
2022-11-09T02:50:39.629Z,40.67
2022-11-09T02:53:06.640Z,30.80
2022-11-09T02:55:33.606Z,33.60
2022-11-09T02:58:00.601Z,31.67
2022-11-09T03:00:27.548Z,33.60
2022-11-09T03:02:54.740Z,34.77
2022-11-09T03:05:21.684Z,37.23
2022-11-09T03:07:48.618Z,31.80
2022-11-09T03:10:15.705Z,39.37
2022-11-09T03:12:42.735Z,33.90
2022-11-09T03:15:10.205Z,31.37
2022-11-09T03:17:37.425Z,33.67
2022-11-09T03:20:05.118Z,36.33
2022-11-09T03:22:32.195Z,33.57
2022-11-09T03:24:59.112Z,34.30
2022-11-09T03:27:26.075Z,35.57
2022-11-09T03:29:53.003Z,35.37
2022-11-09T03:32:19.922Z,36.57
2022-11-09T03:34:46.874Z,35.37
2022-11-09T03:37:13.866Z,35.00
2022-11-09T03:39:40.847Z,38.07
2022-11-09T03:42:07.785Z,36.80
2022-11-09T03:44:34.698Z,32.67
2022-11-09T03:47:01.724Z,31.97
2022-11-09T03:49:28.678Z,38.43
2022-11-09T03:51:55.566Z,35.97
2022-11-09T03:54:22.508Z,31.90
2022-11-09T03:56:49.378Z,34.13
2022-11-09T03:59:16.347Z,36.97
2022-11-09T04:01:43.312Z,37.40
2022-11-09T04:04:10.414Z,32.23
2022-11-09T04:06:37.355Z,36.03
2022-11-09T04:09:04.406Z,36.23
2022-11-09T04:11:31.420Z,37.27
2022-11-09T04:13:58.401Z,38.63
2022-11-09T04:16:25.449Z,37.33
2022-11-09T04:18:52.400Z,32.33
2022-11-09T04:21:23.708Z,34.10
2022-11-09T04:23:51.088Z,36.50
2022-11-09T04:26:18.106Z,36.67
2022-11-09T04:28:45.129Z,35.97
2022-11-09T04:31:12.060Z,37.60
2022-11-09T04:33:38.988Z,39.47
2022-11-09T04:36:06.200Z,35.10
2022-11-09T04:38:33.250Z,36.80
2022-11-09T04:41:01.952Z,32.13
2022-11-09T04:43:29.129Z,39.33
2022-11-09T04:45:59.146Z,36.77
2022-11-09T04:48:26.176Z,35.23
2022-11-09T04:50:53.154Z,37.53
2022-11-09T04:53:20.380Z,36.33
2022-11-09T04:55:47.656Z,37.03
2022-11-09T04:58:14.581Z,38.27
2022-11-09T05:00:41.555Z,39.77
2022-11-09T05:03:08.833Z,40.63
2022-11-09T05:05:38.304Z,36.13
2022-11-09T05:08:06.510Z,40.37
2022-11-09T05:10:34.240Z,41.37
2022-11-09T05:13:07.055Z,36.83
2022-11-09T05:15:35.749Z,37.43
2022-11-09T05:18:03.808Z,35.93
2022-11-09T05:20:32.004Z,37.60
2022-11-09T05:23:19.305Z,37.67
2022-11-09T05:25:47.599Z,37.40
2022-11-09T05:28:14.956Z,36.17
2022-11-09T05:30:42.003Z,36.07
2022-11-09T05:33:09.041Z,41.67
2022-11-09T05:35:35.973Z,35.30
2022-11-09T05:38:02.977Z,37.10
2022-11-09T05:40:30.049Z,34.60
2022-11-09T05:42:57.011Z,36.43
2022-11-09T05:45:41.939Z,36.87
2022-11-09T05:48:09.882Z,36.90
2022-11-09T05:50:37.630Z,40.93
2022-11-09T05:53:04.755Z,41.50
2022-11-09T05:55:31.684Z,40.63
2022-11-09T05:57:58.748Z,43.60
2022-11-09T06:00:26.562Z,38.47
2022-11-09T06:02:53.867Z,40.20
2022-11-09T06:05:21.680Z,40.73
2022-11-09T06:07:48.659Z,40.33
2022-11-09T06:10:15.644Z,39.93
2022-11-09T06:12:42.601Z,41.13
2022-11-09T06:15:09.897Z,39.40
2022-11-09T06:17:36.802Z,40.93
2022-11-09T06:20:04.526Z,41.47
2022-11-09T06:22:31.772Z,41.10
2022-11-09T06:24:58.786Z,40.17
2022-11-09T06:27:25.708Z,39.23
2022-11-09T06:29:52.665Z,39.30
2022-11-09T06:32:19.599Z,38.90
2022-11-09T06:34:48.342Z,36.03
2022-11-09T06:37:17.866Z,41.47
2022-11-09T06:39:45.445Z,34.87
2022-11-09T06:42:12.405Z,36.67
2022-11-09T06:44:39.684Z,38.63
2022-11-09T06:47:06.577Z,39.50
2022-11-09T06:49:33.500Z,40.07
2022-11-09T06:52:00.416Z,41.00
2022-11-09T06:54:28.148Z,39.43
2022-11-09T06:56:55.813Z,39.07
2022-11-09T06:59:22.909Z,39.40
2022-11-09T07:01:49.938Z,41.33
2022-11-09T07:04:16.930Z,41.87
2022-11-09T07:06:44.385Z,39.47
2022-11-09T07:09:12.952Z,43.33
2022-11-09T07:11:39.955Z,35.47
2022-11-09T07:14:06.899Z,42.00
2022-11-09T07:16:34.245Z,39.10
2022-11-09T07:19:01.200Z,37.80
2022-11-09T07:21:28.170Z,43.57
2022-11-09T07:23:55.162Z,39.37
2022-11-09T07:26:22.091Z,36.50
2022-11-09T07:28:49.082Z,36.20
2022-11-09T07:31:16.021Z,37.73
2022-11-09T07:33:42.990Z,38.43
2022-11-09T07:36:09.912Z,39.60
2022-11-09T07:38:36.814Z,38.87
2022-11-09T07:41:03.845Z,38.23
2022-11-09T07:43:30.921Z,36.10
2022-11-09T07:45:58.149Z,39.13
2022-11-09T07:48:25.044Z,40.37
2022-11-09T07:50:52.029Z,42.73
2022-11-09T07:53:19.384Z,37.63
2022-11-09T07:55:46.586Z,41.23
2022-11-09T07:58:15.794Z,43.17
2022-11-09T08:00:44.086Z,42.13
2022-11-09T08:03:11.440Z,37.57
2022-11-09T08:05:39.643Z,37.07
2022-11-09T08:08:10.412Z,42.10
2022-11-09T08:10:38.446Z,39.40
2022-11-09T08:13:10.044Z,40.37
2022-11-09T08:15:38.414Z,38.13
2022-11-09T08:18:10.344Z,37.83
2022-11-09T08:20:37.657Z,38.57
2022-11-09T08:23:05.296Z,39.77
2022-11-09T08:25:36.177Z,39.73
2022-11-09T08:28:03.915Z,35.77
2022-11-09T08:30:31.247Z,37.67
2022-11-09T08:33:00.372Z,37.17
2022-11-09T08:35:27.954Z,35.13
2022-11-09T08:37:55.343Z,35.58
2022-11-09T08:40:25.726Z,34.30
2022-11-09T08:42:53.220Z,37.15
2022-11-09T08:45:21.058Z,32.78
2022-11-09T08:47:48.276Z,38.40
2022-11-09T08:50:16.296Z,38.33
2022-11-09T08:52:43.200Z,34.15
2022-11-09T08:55:10.639Z,36.33
2022-11-09T08:57:37.639Z,35.25
2022-11-09T09:00:05.985Z,37.72
2022-11-09T09:02:33.052Z,40.67
2022-11-09T09:05:00.185Z,40.22
2022-11-09T09:07:27.372Z,35.85
2022-11-09T09:09:54.343Z,35.72
2022-11-09T09:12:21.622Z,33.65
2022-11-09T09:14:48.642Z,37.33
2022-11-09T09:17:15.848Z,34.75
2022-11-09T09:19:48.779Z,28.55
2022-11-09T09:22:16.903Z,34.33
2022-11-09T09:24:43.840Z,30.98
2022-11-09T09:27:10.736Z,33.15
2022-11-09T09:29:37.748Z,38.75
2022-11-09T09:32:05.155Z,33.95
2022-11-09T09:34:32.070Z,35.38
2022-11-09T09:36:59.023Z,39.75
2022-11-09T09:39:27.096Z,36.72
2022-11-09T09:42:00.735Z,33.83
2022-11-09T09:44:36.882Z,36.60
2022-11-09T09:47:20.112Z,31.98
2022-11-09T09:50:01.449Z,32.53
2022-11-09T09:53:17.765Z,34.15
2022-11-09T09:55:56.715Z,32.70
2022-11-09T09:58:33.353Z,31.17
2022-11-09T10:01:20.506Z,35.50
2022-11-09T10:03:48.557Z,31.42
2022-11-09T10:06:59.133Z,31.42
2022-11-09T10:09:41.021Z,34.65
2022-11-09T10:12:54.292Z,33.28
2022-11-09T10:15:31.547Z,36.10
2022-11-09T10:18:30.433Z,34.35
2022-11-09T10:21:27.662Z,35.20
2022-11-09T10:24:25.518Z,37.38
2022-11-09T10:26:56.886Z,34.83
2022-11-09T10:29:39.545Z,35.17
2022-11-09T10:32:23.517Z,36.58
2022-11-09T10:34:59.981Z,31.15
2022-11-09T10:37:39.558Z,33.92
2022-11-09T10:40:19.467Z,36.70
2022-11-09T10:43:02.722Z,34.08
2022-11-09T10:45:37.901Z,34.25
2022-11-09T10:48:07.580Z,31.52
2022-11-09T10:50:52.944Z,32.30
2022-11-09T10:53:27.831Z,32.92
2022-11-09T10:55:58.803Z,32.90
2022-11-09T10:58:53.159Z,36.17
2022-11-09T11:01:25.584Z,34.03
2022-11-09T11:03:55.552Z,29.98
2022-11-09T11:06:22.348Z,34.55
2022-11-09T11:08:51.106Z,32.03
2022-11-09T11:11:33.758Z,33.47
2022-11-09T11:14:19.858Z,30.77
2022-11-09T11:16:52.500Z,34.28
2022-11-09T11:19:39.676Z,33.70
2022-11-09T11:22:12.492Z,33.50
2022-11-09T11:24:58.973Z,37.85
2022-11-09T11:27:46.359Z,33.92
2022-11-09T11:30:16.702Z,35.33
2022-11-09T11:32:48.945Z,32.92
2022-11-09T11:35:49.083Z,31.75
2022-11-09T11:38:53.202Z,35.17
2022-11-09T11:41:50.827Z,35.15
2022-11-09T11:44:56.704Z,34.53
2022-11-09T11:48:01.066Z,35.53
2022-11-09T11:50:54.869Z,31.95
2022-11-09T11:53:43.219Z,35.42
2022-11-09T11:56:43.219Z,33.58
2022-11-09T11:59:43.770Z,36.45
2022-11-09T12:03:06.528Z,30.40
2022-11-09T12:06:19.204Z,30.05
2022-11-09T12:09:11.168Z,32.33
2022-11-09T12:12:29.134Z,27.45
2022-11-09T12:15:04.871Z,31.13
2022-11-09T12:18:11.611Z,32.08
2022-11-09T12:21:12.441Z,31.73
2022-11-09T12:23:53.792Z,32.50
2022-11-09T12:27:25.629Z,32.08
2022-11-09T12:30:09.373Z,33.20
2022-11-09T12:33:00.262Z,31.88
2022-11-09T12:35:48.139Z,32.33
2022-11-09T12:38:32.197Z,33.45
2022-11-09T12:41:09.151Z,36.22
2022-11-09T12:44:27.007Z,40.88
2022-11-09T12:47:10.322Z,32.03
2022-11-09T12:49:44.463Z,36.72
2022-11-09T12:52:16.728Z,33.55
2022-11-09T12:54:48.946Z,32.28
2022-11-09T12:57:27.697Z,29.98
2022-11-09T13:00:00.312Z,32.55
2022-11-09T13:02:38.314Z,36.88
2022-11-09T13:05:27.080Z,33.72
2022-11-09T13:07:55.250Z,30.00
2022-11-09T13:10:38.919Z,29.20
2022-11-09T13:13:11.215Z,28.35
2022-11-09T13:16:19.517Z,29.23
2022-11-09T13:18:51.930Z,28.52
2022-11-09T13:21:21.849Z,30.02
2022-11-09T13:24:02.193Z,35.15
2022-11-09T13:26:33.696Z,29.33
2022-11-09T13:29:16.098Z,32.15
2022-11-09T13:32:09.082Z,35.65
2022-11-09T13:35:02.730Z,32.03
2022-11-09T13:37:41.869Z,33.30
2022-11-09T13:40:33.269Z,35.95
2022-11-09T13:43:14.355Z,31.95
2022-11-09T13:45:55.274Z,36.08
2022-11-09T13:48:24.879Z,31.25
2022-11-09T13:50:56.500Z,35.88
2022-11-09T13:54:06.120Z,31.65
2022-11-09T13:56:40.074Z,36.10
2022-11-09T13:59:35.152Z,34.75
2022-11-09T14:02:03.393Z,32.35
2022-11-09T14:04:43.671Z,32.20
2022-11-09T14:07:23.472Z,30.05
2022-11-09T14:10:20.928Z,35.03
2022-11-09T14:13:30.074Z,32.95
2022-11-09T14:16:22.457Z,35.55
2022-11-09T14:19:23.016Z,32.80
2022-11-09T14:21:52.512Z,33.70
2022-11-09T14:24:30.793Z,33.28
2022-11-09T14:27:22.146Z,34.05
2022-11-09T14:29:52.392Z,35.08
2022-11-09T14:32:36.272Z,31.00
2022-11-09T14:35:33.596Z,32.67
2022-11-09T14:38:14.392Z,35.50
2022-11-09T14:40:46.276Z,31.02
2022-11-09T14:43:44.470Z,29.67
2022-11-09T14:46:22.620Z,36.78
2022-11-09T14:48:57.018Z,28.27
2022-11-09T14:51:37.785Z,34.85
2022-11-09T14:54:13.247Z,36.17
2022-11-09T14:56:42.582Z,32.78
2022-11-09T14:59:16.724Z,28.55
2022-11-09T15:02:08.208Z,34.92
2022-11-09T15:04:54.280Z,28.00
2022-11-09T15:07:25.176Z,36.03
2022-11-09T15:09:59.387Z,36.50
2022-11-09T15:12:26.793Z,31.48
2022-11-09T15:15:01.604Z,33.90
2022-11-09T15:17:37.890Z,31.67
2022-11-09T15:20:31.105Z,29.33
2022-11-09T15:23:15.067Z,35.30
2022-11-09T15:25:41.868Z,31.77
2022-11-09T15:28:08.665Z,38.22
2022-11-09T15:30:35.535Z,38.13
2022-11-09T15:33:20.066Z,31.10
2022-11-09T15:36:04.969Z,38.60
2022-11-09T15:38:42.942Z,32.60
2022-11-09T15:41:16.761Z,36.05
2022-11-09T15:43:44.195Z,41.15
2022-11-09T15:46:21.994Z,36.00
2022-11-09T15:48:49.449Z,37.75
2022-11-09T15:51:17.298Z,39.08
2022-11-09T15:53:44.531Z,36.78
2022-11-09T15:56:22.540Z,35.67
2022-11-09T15:58:52.447Z,34.22
2022-11-09T16:01:19.722Z,38.47
2022-11-09T16:03:46.709Z,35.13
2022-11-09T16:06:22.416Z,38.63
2022-11-09T16:08:50.640Z,35.10
2022-11-09T16:11:18.227Z,34.92
2022-11-09T16:13:45.370Z,38.50
2022-11-09T16:16:14.736Z,38.90
2022-11-09T16:18:41.795Z,38.65
2022-11-09T16:21:15.366Z,41.97
2022-11-09T16:23:42.625Z,44.10
2022-11-09T16:26:15.948Z,39.38
2022-11-09T16:28:43.588Z,41.92
2022-11-09T16:31:12.815Z,37.97
2022-11-09T16:33:40.641Z,39.45
2022-11-09T16:36:20.296Z,39.53
2022-11-09T16:38:52.565Z,43.30
2022-11-09T16:41:20.490Z,39.73
2022-11-09T16:43:50.723Z,39.00
2022-11-09T16:46:26.429Z,35.20
2022-11-09T16:48:54.002Z,36.35
2022-11-09T16:51:21.519Z,43.35
2022-11-09T16:53:48.459Z,42.88
2022-11-09T16:56:15.513Z,39.50
2022-11-09T16:58:42.479Z,42.88
2022-11-09T17:01:12.376Z,36.20
2022-11-09T17:03:40.569Z,42.85
2022-11-09T17:06:11.311Z,39.17
2022-11-09T17:08:42.409Z,41.47
2022-11-09T17:11:13.393Z,37.33
2022-11-09T17:13:40.790Z,38.87
2022-11-09T17:16:11.396Z,42.40
2022-11-09T17:18:38.884Z,42.70
2022-11-09T17:21:14.778Z,46.40
2022-11-09T17:23:43.120Z,43.90
2022-11-09T17:26:10.783Z,43.90
2022-11-09T17:28:42.751Z,45.07
2022-11-09T17:31:17.269Z,47.40
2022-11-09T17:33:45.130Z,40.77
2022-11-09T17:36:14.728Z,46.13
2022-11-09T17:38:41.693Z,44.43
2022-11-09T17:41:12.216Z,44.67
2022-11-09T17:43:41.542Z,46.17
2022-11-09T17:46:11.454Z,39.00
2022-11-09T17:48:40.653Z,41.27
2022-11-09T17:51:09.419Z,39.87
2022-11-09T17:53:37.143Z,44.73
2022-11-09T17:56:05.105Z,44.90
2022-11-09T17:58:32.186Z,45.13
2022-11-09T18:01:08.611Z,41.33
2022-11-09T18:03:37.207Z,40.15
2022-11-09T18:06:09.812Z,44.03
2022-11-09T18:08:36.776Z,43.83
2022-11-09T18:11:03.875Z,41.43
2022-11-09T18:13:31.193Z,49.27
2022-11-09T18:15:58.158Z,48.17
2022-11-09T18:18:25.408Z,46.87
2022-11-09T18:20:52.302Z,46.45
2022-11-09T18:23:19.260Z,48.88
2022-11-09T18:25:59.632Z,46.23
2022-11-09T18:28:26.712Z,45.20
2022-11-09T18:30:58.954Z,43.77
2022-11-09T18:33:25.842Z,46.53
2022-11-09T18:36:03.187Z,47.10
2022-11-09T18:38:30.448Z,45.87
2022-11-09T18:41:13.434Z,44.50
2022-11-09T18:43:41.086Z,47.13
2022-11-09T18:46:11.213Z,45.43
2022-11-09T18:48:38.620Z,54.77
2022-11-09T18:51:07.629Z,46.40
2022-11-09T18:53:40.913Z,40.80
2022-11-09T18:56:21.612Z,46.47
2022-11-09T18:58:52.953Z,43.03
2022-11-09T19:01:23.069Z,45.73
2022-11-09T19:03:54.978Z,39.80
2022-11-09T19:06:24.992Z,44.53
2022-11-09T19:09:10.704Z,47.70
2022-11-09T19:11:37.825Z,49.27
2022-11-09T19:14:04.768Z,47.77
2022-11-09T19:16:31.878Z,41.13
2022-11-09T19:18:58.850Z,54.10
2022-11-09T19:21:29.656Z,40.23
2022-11-09T19:23:56.735Z,45.87
2022-11-09T19:26:23.905Z,43.30
2022-11-09T19:28:50.860Z,41.47
2022-11-09T19:31:21.794Z,42.30
2022-11-09T19:33:48.815Z,40.20
2022-11-09T19:36:29.695Z,42.33
2022-11-09T19:38:57.793Z,39.33
2022-11-09T19:41:25.512Z,46.67
2022-11-09T19:43:55.898Z,43.70
2022-11-09T19:46:23.103Z,42.80
2022-11-09T19:48:50.329Z,51.13
2022-11-09T19:51:18.530Z,43.97
2022-11-09T19:53:51.718Z,51.67
2022-11-09T19:56:19.773Z,51.57
2022-11-09T19:58:52.253Z,48.27
2022-11-09T20:01:19.746Z,46.80
2022-11-09T20:03:58.153Z,41.20
2022-11-09T20:06:26.500Z,43.55
2022-11-09T20:08:53.917Z,47.67
2022-11-09T20:11:45.081Z,48.23
2022-11-09T20:14:12.929Z,48.53
2022-11-09T20:16:41.665Z,49.67
2022-11-09T20:19:13.014Z,48.43
2022-11-09T20:21:40.354Z,50.10
2022-11-09T20:24:08.591Z,47.10
2022-11-09T20:26:35.721Z,50.33
2022-11-09T20:29:02.732Z,45.50
2022-11-09T20:31:29.680Z,46.17
2022-11-09T20:33:56.861Z,51.23
2022-11-09T20:36:23.766Z,50.37
2022-11-09T20:38:50.948Z,47.40
2022-11-09T20:41:21.643Z,51.93
2022-11-09T20:43:51.336Z,52.03
2022-11-09T20:46:23.750Z,45.90
2022-11-09T20:48:54.614Z,41.07
2022-11-09T20:51:24.350Z,50.77
2022-11-09T20:53:51.571Z,47.37
2022-11-09T20:56:20.254Z,46.83
2022-11-09T20:58:47.385Z,47.83
2022-11-09T21:01:20.766Z,47.83
2022-11-09T21:03:50.845Z,49.00
2022-11-09T21:06:19.591Z,48.03
2022-11-09T21:08:52.121Z,50.13
2022-11-09T21:11:20.595Z,47.67
2022-11-09T21:13:52.215Z,46.00
2022-11-09T21:16:21.588Z,51.03
2022-11-09T21:18:48.990Z,51.33
2022-11-09T21:21:23.127Z,51.13
2022-11-09T21:24:09.225Z,50.80
2022-11-09T21:26:54.939Z,49.67
2022-11-09T21:29:43.134Z,59.70
2022-11-09T21:32:12.166Z,46.57
2022-11-09T21:34:39.244Z,48.13
2022-11-09T21:37:06.317Z,55.80
2022-11-09T21:39:33.436Z,48.37
2022-11-09T21:42:01.625Z,46.80
2022-11-09T21:44:30.769Z,48.30
2022-11-09T21:46:58.680Z,50.10
2022-11-09T21:49:25.664Z,48.37
2022-11-09T21:51:53.079Z,46.30
2022-11-09T21:54:21.259Z,52.13
2022-11-09T21:56:49.419Z,48.97
2022-11-09T21:59:16.388Z,46.30
2022-11-09T22:01:44.124Z,47.27
2022-11-09T22:04:11.401Z,49.47
2022-11-09T22:06:41.371Z,55.60
2022-11-09T22:09:15.275Z,50.60
2022-11-09T22:12:01.868Z,49.50
2022-11-09T22:14:47.779Z,53.87
2022-11-09T22:17:14.969Z,56.90
2022-11-09T22:20:00.858Z,50.57
2022-11-09T22:22:30.004Z,49.03
2022-11-09T22:24:57.135Z,50.97
2022-11-09T22:27:24.345Z,49.13
2022-11-09T22:29:51.374Z,47.27
2022-11-09T22:32:18.407Z,49.07
2022-11-09T22:34:45.349Z,46.37
2022-11-09T22:37:12.339Z,54.73
2022-11-09T22:39:44.385Z,46.83
2022-11-09T22:42:13.901Z,50.93
2022-11-09T22:44:40.839Z,50.33
2022-11-09T22:47:07.945Z,52.93
2022-11-09T22:49:36.693Z,46.63
2022-11-09T22:52:05.101Z,45.33
2022-11-09T22:54:32.193Z,53.17
2022-11-09T22:56:59.145Z,55.10
2022-11-09T22:59:26.192Z,54.37
2022-11-09T23:01:53.191Z,49.47
2022-11-09T23:04:20.263Z,51.00
2022-11-09T23:06:47.217Z,52.43
2022-11-09T23:09:14.279Z,44.93
2022-11-09T23:11:41.336Z,46.67
2022-11-09T23:14:08.535Z,51.77
2022-11-09T23:16:35.511Z,51.67
2022-11-09T23:19:02.431Z,51.50
2022-11-09T23:21:32.530Z,44.23
2022-11-09T23:24:05.764Z,45.83
2022-11-09T23:26:33.975Z,50.23
2022-11-09T23:29:01.192Z,50.63
2022-11-09T23:31:28.185Z,54.50
2022-11-09T23:33:57.962Z,50.43
2022-11-09T23:36:26.671Z,54.27
2022-11-09T23:38:53.854Z,56.70
2022-11-09T23:41:21.397Z,47.60
2022-11-09T23:43:49.833Z,56.03
2022-11-09T23:46:17.975Z,48.97
2022-11-09T23:48:45.211Z,50.20
2022-11-09T23:51:12.372Z,51.37
2022-11-09T23:53:39.897Z,50.07
2022-11-09T23:56:10.275Z,51.20
2022-11-09T23:58:38.087Z,52.37
